createdAt,value
2022-12-15T00:00:38.747Z,1004.99
2022-12-15T00:02:35.899Z,1004.99
2022-12-15T00:04:36.115Z,1005.05
2022-12-15T00:06:35.639Z,1005.05
2022-12-15T00:08:35.427Z,1005.06
2022-12-15T00:10:35.672Z,1005.06
2022-12-15T00:12:36.105Z,1005.14
2022-12-15T00:14:35.312Z,1005.14
2022-12-15T00:16:36.068Z,1005.11
2022-12-15T00:18:35.880Z,1005.11
2022-12-15T00:20:35.247Z,1005.17
2022-12-15T00:22:35.631Z,1005.17
2022-12-15T00:24:35.682Z,1005.12
2022-12-15T00:26:35.161Z,1005.12
2022-12-15T00:28:35.732Z,1005.16
2022-12-15T00:30:35.922Z,1005.16
2022-12-15T00:32:35.357Z,1005.33
2022-12-15T00:34:35.669Z,1005.33
2022-12-15T00:36:35.718Z,1005.25
2022-12-15T00:38:35.894Z,1005.25
2022-12-15T00:40:35.321Z,1005.16
2022-12-15T00:42:35.579Z,1005.16
2022-12-15T00:44:42.917Z,1005.27
2022-12-15T00:46:35.539Z,1005.27
2022-12-15T00:48:35.494Z,1005.4
2022-12-15T00:50:35.731Z,1005.4
2022-12-15T00:52:35.953Z,1005.37
2022-12-15T00:54:40.797Z,1005.37
2022-12-15T00:56:35.736Z,1005.38
2022-12-15T00:58:35.943Z,1005.38
2022-12-15T01:00:38.525Z,1005.36
2022-12-15T01:02:36.200Z,1005.36
2022-12-15T01:04:36.018Z,1005.41
2022-12-15T01:06:35.238Z,1005.41
2022-12-15T01:08:35.665Z,1005.36
2022-12-15T01:10:35.150Z,1005.36
2022-12-15T01:12:35.503Z,1005.32
2022-12-15T01:14:35.627Z,1005.32
2022-12-15T01:16:36.151Z,1005.34
2022-12-15T01:18:35.347Z,1005.34
2022-12-15T01:20:35.792Z,1005.39
2022-12-15T01:22:35.048Z,1005.39
2022-12-15T01:24:35.333Z,1005.38
2022-12-15T01:26:35.494Z,1005.38
2022-12-15T01:28:35.577Z,1005.38
2022-12-15T01:30:35.963Z,1005.38
2022-12-15T01:32:35.335Z,1005.4
2022-12-15T01:34:35.490Z,1005.4
2022-12-15T01:36:35.769Z,1005.48
2022-12-15T01:38:35.173Z,1005.48
2022-12-15T01:40:35.415Z,1005.49
2022-12-15T01:42:35.801Z,1005.49
2022-12-15T01:44:35.967Z,1005.6
2022-12-15T01:46:35.534Z,1005.6
2022-12-15T01:48:35.598Z,1005.62
2022-12-15T01:50:35.943Z,1005.62
2022-12-15T01:52:35.299Z,1005.7
2022-12-15T01:54:35.620Z,1005.7
2022-12-15T01:56:37.930Z,1005.7
2022-12-15T01:58:35.341Z,1005.7
2022-12-15T02:00:40.828Z,1005.72
2022-12-15T02:02:40.229Z,1005.72
2022-12-15T02:04:36.087Z,1005.91
2022-12-15T02:06:35.301Z,1005.91
2022-12-15T02:08:35.552Z,1005.84
2022-12-15T02:10:36.018Z,1005.84
2022-12-15T02:12:35.200Z,1005.87
2022-12-15T02:14:35.607Z,1005.87
2022-12-15T02:16:36.161Z,1005.76
2022-12-15T02:18:35.243Z,1005.76
2022-12-15T02:20:35.476Z,1005.73
2022-12-15T02:22:35.740Z,1005.73
2022-12-15T02:24:35.069Z,1005.72
2022-12-15T02:26:35.361Z,1005.72
2022-12-15T02:28:35.615Z,1005.77
2022-12-15T02:30:35.026Z,1005.77
2022-12-15T02:32:35.532Z,1005.81
2022-12-15T02:34:35.823Z,1005.81
2022-12-15T02:36:35.163Z,1005.89
2022-12-15T02:38:35.340Z,1005.89
2022-12-15T02:40:35.948Z,1005.8
2022-12-15T02:42:35.080Z,1005.8
2022-12-15T02:44:35.285Z,1005.81
2022-12-15T02:46:35.918Z,1005.81
2022-12-15T02:48:35.116Z,1005.85
2022-12-15T02:50:35.357Z,1005.85
2022-12-15T02:52:35.526Z,1006.02
2022-12-15T02:54:35.987Z,1006.02
2022-12-15T02:56:35.109Z,1005.9
2022-12-15T02:58:35.688Z,1005.9
2022-12-15T03:00:41.129Z,1005.94
2022-12-15T03:02:36.716Z,1005.94
2022-12-15T03:04:35.267Z,1005.86
2022-12-15T03:06:35.469Z,1005.86
2022-12-15T03:08:35.977Z,1005.91
2022-12-15T03:10:35.305Z,1005.91
2022-12-15T03:12:35.673Z,1006
2022-12-15T03:14:35.943Z,1006
2022-12-15T03:16:35.698Z,1006.01
2022-12-15T03:18:35.614Z,1006.01
2022-12-15T03:20:35.739Z,1005.96
2022-12-15T03:22:35.100Z,1005.96
2022-12-15T03:24:35.409Z,1005.82
2022-12-15T03:26:35.814Z,1005.95
2022-12-15T03:28:35.231Z,1005.95
2022-12-15T03:30:35.410Z,1005.92
2022-12-15T03:32:36.124Z,1005.92
2022-12-15T03:34:35.101Z,1005.93
2022-12-15T03:36:35.392Z,1005.93
2022-12-15T03:38:35.767Z,1005.95
2022-12-15T03:40:36.066Z,1005.95
2022-12-15T03:42:35.375Z,1005.88
2022-12-15T03:44:35.698Z,1005.88
2022-12-15T03:46:36.225Z,1006.05
2022-12-15T03:48:35.397Z,1006.05
2022-12-15T03:50:35.497Z,1005.86
2022-12-15T03:52:35.750Z,1005.86
2022-12-15T03:54:35.127Z,1006.09
2022-12-15T03:56:35.422Z,1006.09
2022-12-15T03:58:35.658Z,1006.05
2022-12-15T04:00:40.313Z,1006.05
2022-12-15T04:02:36.467Z,1006.05
2022-12-15T04:04:35.881Z,1006.05
2022-12-15T04:06:35.938Z,1006.2
2022-12-15T04:08:35.063Z,1006.2
2022-12-15T04:10:43.112Z,1006.12
2022-12-15T04:12:35.858Z,1006.12
2022-12-15T04:14:35.010Z,1006.04
2022-12-15T04:16:42.613Z,1006.04
2022-12-15T04:18:35.620Z,1006.01
2022-12-15T04:20:35.946Z,1006.01
2022-12-15T04:22:40.474Z,1006.05
2022-12-15T04:24:35.688Z,1006.05
2022-12-15T04:26:35.884Z,1005.95
2022-12-15T04:28:35.723Z,1005.95
2022-12-15T04:30:35.410Z,1005.98
2022-12-15T04:32:35.908Z,1005.98
2022-12-15T04:34:36.013Z,1005.94
2022-12-15T04:36:35.091Z,1005.94
2022-12-15T04:38:35.511Z,1005.98
2022-12-15T04:40:35.917Z,1005.98
2022-12-15T04:42:36.066Z,1006.13
2022-12-15T04:44:35.252Z,1006.13
2022-12-15T04:46:36.047Z,1006.02
2022-12-15T04:48:35.956Z,1006.02
2022-12-15T04:50:35.284Z,1006.14
2022-12-15T04:52:35.514Z,1006.14
2022-12-15T04:54:35.877Z,1005.98
2022-12-15T04:56:41.274Z,1005.98
2022-12-15T04:58:35.503Z,1006.18
2022-12-15T05:00:38.220Z,1006.18
2022-12-15T05:02:37.093Z,1006.1
2022-12-15T05:04:35.690Z,1006.1
2022-12-15T05:06:35.367Z,1006.23
2022-12-15T05:08:35.742Z,1006.23
2022-12-15T05:10:38.072Z,1006.14
2022-12-15T05:12:35.293Z,1006.14
2022-12-15T05:14:35.591Z,1006.27
2022-12-15T05:16:36.251Z,1006.27
2022-12-15T05:18:35.079Z,1006.22
2022-12-15T05:20:35.382Z,1006.22
2022-12-15T05:22:35.746Z,1006.18
2022-12-15T05:24:35.967Z,1006.18
2022-12-15T05:26:35.216Z,1006.28
2022-12-15T05:28:35.585Z,1006.28
2022-12-15T05:30:36.002Z,1006.25
2022-12-15T05:32:35.253Z,1006.25
2022-12-15T05:34:39.698Z,1006.21
2022-12-15T05:36:35.814Z,1006.21
2022-12-15T05:38:35.088Z,1006.11
2022-12-15T05:40:35.630Z,1006.11
2022-12-15T05:42:35.899Z,1006.33
2022-12-15T05:44:35.089Z,1006.33
2022-12-15T05:46:35.848Z,1006.23
2022-12-15T05:48:35.874Z,1006.23
2022-12-15T05:50:35.255Z,1006.32
2022-12-15T05:52:35.618Z,1006.32
2022-12-15T05:54:36.070Z,1006.34
2022-12-15T05:56:35.248Z,1006.34
2022-12-15T05:58:40.000Z,1006.4
2022-12-15T06:00:38.198Z,1006.4
2022-12-15T06:02:36.067Z,1006.41
2022-12-15T06:04:36.097Z,1006.41
2022-12-15T06:06:35.970Z,1006.41
2022-12-15T06:08:35.162Z,1006.41
2022-12-15T06:10:35.524Z,1006.5
2022-12-15T06:12:35.858Z,1006.5
2022-12-15T06:14:35.072Z,1006.48
2022-12-15T06:16:39.588Z,1006.48
2022-12-15T06:18:35.927Z,1006.51
2022-12-15T06:20:35.187Z,1006.51
2022-12-15T06:22:35.517Z,1006.52
2022-12-15T06:24:35.975Z,1006.52
2022-12-15T06:26:35.187Z,1006.49
2022-12-15T06:28:35.870Z,1006.49
2022-12-15T06:30:35.880Z,1006.59
2022-12-15T06:32:35.331Z,1006.59
2022-12-15T06:34:36.461Z,1006.63
2022-12-15T06:36:35.904Z,1006.63
2022-12-15T06:38:35.395Z,1006.58
2022-12-15T06:40:38.188Z,1006.58
2022-12-15T06:42:35.296Z,1006.64
2022-12-15T06:44:35.345Z,1006.53
2022-12-15T06:46:36.047Z,1006.53
2022-12-15T06:48:35.666Z,1006.7
2022-12-15T06:50:35.485Z,1006.7
2022-12-15T06:52:35.980Z,1006.55
2022-12-15T06:54:35.351Z,1006.55
2022-12-15T06:56:44.189Z,1006.89
2022-12-15T06:58:35.847Z,1006.89
2022-12-15T07:00:38.005Z,1006.65
2022-12-15T07:02:40.825Z,1006.65
2022-12-15T07:04:36.057Z,1006.58
2022-12-15T07:06:35.758Z,1006.58
2022-12-15T07:08:42.735Z,1006.66
2022-12-15T07:10:35.473Z,1006.66
2022-12-15T07:12:35.847Z,1006.84
2022-12-15T07:14:35.239Z,1006.84
2022-12-15T07:16:36.208Z,1006.79
2022-12-15T07:18:35.890Z,1006.79
2022-12-15T07:20:40.234Z,1006.71
2022-12-15T07:22:35.453Z,1006.71
2022-12-15T07:24:36.648Z,1006.75
2022-12-15T07:26:43.388Z,1006.75
2022-12-15T07:28:37.321Z,1006.82
2022-12-15T07:30:38.925Z,1006.82
2022-12-15T07:32:36.139Z,1006.83
2022-12-15T07:34:35.131Z,1006.83
2022-12-15T07:36:35.466Z,1006.81
2022-12-15T07:38:35.825Z,1006.81
2022-12-15T07:40:35.210Z,1006.92
2022-12-15T07:42:35.400Z,1006.92
2022-12-15T07:44:35.585Z,1006.94
2022-12-15T07:46:36.496Z,1006.94
2022-12-15T07:48:35.319Z,1006.94
2022-12-15T07:50:35.607Z,1006.94
2022-12-15T07:52:35.750Z,1006.86
2022-12-15T07:54:35.829Z,1006.86
2022-12-15T07:56:50.709Z,1006.75
2022-12-15T07:58:35.385Z,1006.75
2022-12-15T08:00:41.616Z,1006.88
2022-12-15T08:02:37.025Z,1006.88
2022-12-15T08:04:35.284Z,1006.88
2022-12-15T08:06:38.234Z,1006.88
2022-12-15T08:08:38.161Z,1006.93
2022-12-15T08:10:35.998Z,1006.93
2022-12-15T08:12:35.228Z,1006.87
2022-12-15T08:14:41.208Z,1006.87
2022-12-15T08:16:36.387Z,1006.89
2022-12-15T08:18:35.356Z,1006.89
2022-12-15T08:20:43.605Z,1006.93
2022-12-15T08:22:35.119Z,1006.93
2022-12-15T08:24:35.320Z,1007.01
2022-12-15T08:26:41.433Z,1007.01
2022-12-15T08:28:35.917Z,1007.02
2022-12-15T08:30:35.519Z,1007.02
2022-12-15T08:32:36.416Z,1007.06
2022-12-15T08:34:35.567Z,1007.06
2022-12-15T08:36:35.550Z,1007.17
2022-12-15T08:38:39.754Z,1007.17
2022-12-15T08:40:36.026Z,1007.15
2022-12-15T08:42:35.191Z,1007.15
2022-12-15T08:44:35.696Z,1007.19
2022-12-15T08:46:35.405Z,1007.19
2022-12-15T08:48:35.474Z,1007.18
2022-12-15T08:50:35.925Z,1007.18
2022-12-15T08:52:35.958Z,1007.24
2022-12-15T08:54:35.362Z,1007.24
2022-12-15T08:56:35.883Z,1007.29
2022-12-15T08:58:35.140Z,1007.29
2022-12-15T09:00:40.576Z,1007.23
2022-12-15T09:02:36.325Z,1007.23
2022-12-15T09:04:36.046Z,1007.36
2022-12-15T09:06:35.072Z,1007.36
2022-12-15T09:08:40.554Z,1007.46
2022-12-15T09:10:35.697Z,1007.46
2022-12-15T09:12:35.179Z,1007.47
2022-12-15T09:14:40.609Z,1007.47
2022-12-15T09:16:45.476Z,1007.45
2022-12-15T09:18:35.326Z,1007.45
2022-12-15T09:20:40.383Z,1007.44
2022-12-15T09:22:36.042Z,1007.44
2022-12-15T09:24:46.875Z,1007.49
2022-12-15T09:26:35.619Z,1007.49
2022-12-15T09:28:35.919Z,1007.49
2022-12-15T09:30:35.721Z,1007.49
2022-12-15T09:32:37.119Z,1007.51
2022-12-15T09:34:35.935Z,1007.51
2022-12-15T09:36:36.107Z,1007.55
2022-12-15T09:38:35.523Z,1007.55
2022-12-15T09:40:35.756Z,1007.53
2022-12-15T09:42:35.974Z,1007.53
2022-12-15T09:44:35.401Z,1007.59
2022-12-15T09:46:36.032Z,1007.59
2022-12-15T09:48:35.818Z,1007.64
2022-12-15T09:50:35.321Z,1007.64
2022-12-15T09:52:44.391Z,1007.69
2022-12-15T09:54:37.044Z,1007.69
2022-12-15T09:56:35.111Z,1007.67
2022-12-15T09:58:42.957Z,1007.71
2022-12-15T10:00:38.780Z,1007.71
2022-12-15T10:02:36.500Z,1007.71
2022-12-15T10:04:35.635Z,1007.68
2022-12-15T10:07:01.988Z,1007.77
2022-12-15T10:08:35.813Z,1007.77
2022-12-15T10:10:35.923Z,1007.69
2022-12-15T10:12:35.186Z,1007.69
2022-12-15T10:14:35.442Z,1007.67
2022-12-15T10:16:36.081Z,1007.67
2022-12-15T10:18:35.030Z,1007.67
2022-12-15T10:20:35.598Z,1007.67
2022-12-15T10:22:35.540Z,1007.66
2022-12-15T10:26:35.042Z,1007.82
2022-12-15T10:30:36.629Z,1007.87
2022-12-15T10:34:35.416Z,1007.72
2022-12-15T10:38:35.915Z,1007.67
2022-12-15T10:42:35.470Z,1007.75
2022-12-15T10:46:35.453Z,1007.66
2022-12-15T10:50:36.705Z,1007.64
2022-12-15T10:54:35.875Z,1007.64
2022-12-15T10:58:35.627Z,1007.71
2022-12-15T11:02:44.599Z,1007.76
2022-12-15T11:06:35.019Z,1007.74
2022-12-15T11:10:35.566Z,1007.68
2022-12-15T11:14:36.048Z,1007.62
2022-12-15T11:18:35.686Z,1007.72
2022-12-15T11:22:35.257Z,1007.7
2022-12-15T11:26:41.063Z,1007.73
2022-12-15T11:30:35.629Z,1007.64
2022-12-15T11:34:35.094Z,1007.59
2022-12-15T11:38:36.170Z,1007.65
2022-12-15T11:42:35.812Z,1007.7
2022-12-15T11:46:35.525Z,1007.7
2022-12-15T11:50:35.321Z,1007.55
2022-12-15T11:54:35.720Z,1007.61
2022-12-15T11:58:36.326Z,1007.68
2022-12-15T12:02:38.145Z,1007.56
2022-12-15T12:06:35.426Z,1007.64
2022-12-15T12:10:36.108Z,1007.64
2022-12-15T12:14:39.188Z,1007.48
2022-12-15T12:18:35.693Z,1007.58
2022-12-15T12:22:35.325Z,1007.44
2022-12-15T12:26:37.573Z,1007.44
2022-12-15T12:30:35.699Z,1007.34
2022-12-15T12:34:35.336Z,1007.42
2022-12-15T12:38:38.179Z,1007.4
2022-12-15T12:42:35.743Z,1007.27
2022-12-15T12:46:35.414Z,1007.29
2022-12-15T12:50:35.171Z,1007.19
2022-12-15T12:54:35.981Z,1007.21
2022-12-15T12:58:35.558Z,1007.18
2022-12-15T13:02:36.265Z,1007.12
2022-12-15T13:06:35.964Z,1007.04
2022-12-15T13:10:35.556Z,1007.16
2022-12-15T13:14:43.694Z,1006.96
2022-12-15T13:18:35.939Z,1006.89
2022-12-15T13:22:35.172Z,1006.89
2022-12-15T13:26:35.594Z,1006.89
2022-12-15T13:30:35.912Z,1006.88
2022-12-15T13:34:35.036Z,1006.9
2022-12-15T13:38:35.824Z,1006.92
2022-12-15T13:43:20.471Z,1006.97
2022-12-15T13:46:35.957Z,1006.94
2022-12-15T13:54:35.462Z,1006.89
2022-12-15T13:58:35.369Z,1006.8
2022-12-15T14:02:35.759Z,1006.86
2022-12-15T14:06:35.224Z,1006.91
2022-12-15T14:10:35.820Z,1006.87
2022-12-15T14:14:35.276Z,1006.93
2022-12-15T14:18:35.687Z,1006.94
2022-12-15T14:22:40.146Z,1006.9
2022-12-15T14:26:35.171Z,1006.79
2022-12-15T14:30:35.725Z,1006.82
2022-12-15T14:34:35.463Z,1006.75
2022-12-15T14:38:34.995Z,1006.7
2022-12-15T14:42:36.038Z,1006.63
2022-12-15T14:46:35.583Z,1006.69
2022-12-15T14:50:36.668Z,1006.71
2022-12-15T14:54:35.582Z,1006.67
2022-12-15T14:58:36.280Z,1006.65
2022-12-15T15:02:35.994Z,1006.58
2022-12-15T15:03:03.979Z,1007.66
2022-12-15T15:03:51.554Z,1006.54
2022-12-15T15:06:35.829Z,1006.54
2022-12-15T15:08:35.689Z,1006.52
2022-12-15T15:10:35.359Z,1006.52
2022-12-15T15:12:35.773Z,1006.51
2022-12-15T15:14:35.193Z,1006.51
2022-12-15T15:16:35.987Z,1006.54
2022-12-15T15:18:35.832Z,1006.54
2022-12-15T15:20:35.331Z,1006.56
2022-12-15T15:22:35.585Z,1006.56
2022-12-15T15:24:35.793Z,1006.49
2022-12-15T15:26:36.026Z,1006.49
2022-12-15T15:28:35.754Z,1006.58
2022-12-15T15:30:35.590Z,1006.58
2022-12-15T15:32:35.912Z,1006.48
2022-12-15T15:34:35.660Z,1006.48
2022-12-15T15:36:35.885Z,1006.54
2022-12-15T15:38:35.779Z,1006.54
2022-12-15T15:40:35.911Z,1006.49
2022-12-15T15:42:43.476Z,1006.49
2022-12-15T15:44:35.384Z,1006.58
2022-12-15T15:46:36.141Z,1006.58
2022-12-15T15:48:36.600Z,1006.61
2022-12-15T15:50:35.268Z,1006.61
2022-12-15T15:52:35.339Z,1006.59
2022-12-15T15:54:35.759Z,1006.59
2022-12-15T15:56:35.139Z,1006.59
2022-12-15T15:58:35.980Z,1006.59
2022-12-15T16:00:36.884Z,1006.48
2022-12-15T16:02:35.982Z,1006.48
2022-12-15T16:04:35.730Z,1006.38
2022-12-15T16:06:35.800Z,1006.38
2022-12-15T16:08:35.782Z,1006.52
2022-12-15T16:10:35.416Z,1006.52
2022-12-15T16:12:35.853Z,1006.52
2022-12-15T16:14:35.101Z,1006.52
2022-12-15T16:16:36.012Z,1006.47
2022-12-15T16:18:36.337Z,1006.47
2022-12-15T16:20:35.524Z,1006.34
2022-12-15T16:22:35.007Z,1006.34
2022-12-15T16:24:35.498Z,1006.35
2022-12-15T16:26:35.072Z,1006.35
2022-12-15T16:28:36.222Z,1006.36
2022-12-15T16:30:35.035Z,1006.36
2022-12-15T16:32:35.585Z,1006.35
2022-12-15T16:34:35.047Z,1006.35
2022-12-15T16:36:35.430Z,1006.36
2022-12-15T16:38:36.052Z,1006.36
2022-12-15T16:40:35.964Z,1006.49
2022-12-15T16:42:35.215Z,1006.49
2022-12-15T16:44:35.335Z,1006.47
2022-12-15T16:46:36.214Z,1006.47
2022-12-15T16:48:36.256Z,1006.52
2022-12-15T16:50:35.730Z,1006.61
2022-12-15T16:52:36.029Z,1006.61
2022-12-15T16:54:35.056Z,1006.52
2022-12-15T16:56:35.579Z,1006.52
2022-12-15T16:58:36.167Z,1006.58
2022-12-15T17:00:41.427Z,1006.58
2022-12-15T17:02:37.138Z,1006.56
2022-12-15T17:04:35.581Z,1006.56
2022-12-15T17:06:35.640Z,1006.64
2022-12-15T17:08:35.572Z,1006.64
2022-12-15T17:10:35.227Z,1006.53
2022-12-15T17:12:35.438Z,1006.53
2022-12-15T17:14:35.694Z,1006.58
2022-12-15T17:16:35.475Z,1006.58
2022-12-15T17:18:35.720Z,1006.74
2022-12-15T17:21:04.366Z,1006.74
2022-12-15T17:22:35.913Z,1006.94
2022-12-15T17:24:35.099Z,1006.94
2022-12-15T17:27:01.724Z,1006.94
2022-12-15T17:28:35.617Z,1006.94
2022-12-15T17:30:36.160Z,1006.91
2022-12-15T17:32:35.447Z,1006.91
2022-12-15T17:34:35.528Z,1006.83
2022-12-15T17:36:35.781Z,1006.83
2022-12-15T17:38:35.123Z,1006.97
2022-12-15T17:40:35.725Z,1006.97
2022-12-15T17:42:37.008Z,1006.96
2022-12-15T17:45:08.098Z,1006.96
2022-12-15T17:46:35.845Z,1006.87
2022-12-15T17:48:35.942Z,1006.87
2022-12-15T17:50:35.142Z,1006.78
2022-12-15T17:52:35.330Z,1006.78
2022-12-15T17:54:35.830Z,1006.78
2022-12-15T17:56:35.323Z,1006.78
2022-12-15T17:58:35.528Z,1006.88
2022-12-15T18:00:42.014Z,1006.88
2022-12-15T18:02:36.810Z,1006.87
2022-12-15T18:04:36.131Z,1006.87
2022-12-15T18:06:35.858Z,1006.89
2022-12-15T18:08:35.165Z,1006.89
2022-12-15T18:10:35.472Z,1006.92
2022-12-15T18:12:35.966Z,1006.92
2022-12-15T18:14:35.314Z,1007.04
2022-12-15T18:16:35.639Z,1007.04
2022-12-15T18:18:35.532Z,1006.97
2022-12-15T18:20:35.924Z,1006.97
2022-12-15T18:22:35.289Z,1006.8
2022-12-15T18:24:35.787Z,1006.8
2022-12-15T18:26:37.444Z,1007.06
2022-12-15T18:28:35.427Z,1007.06
2022-12-15T18:30:35.734Z,1006.93
2022-12-15T18:32:36.044Z,1006.93
2022-12-15T18:34:38.930Z,1007.03
2022-12-15T18:36:35.464Z,1007.03
2022-12-15T18:38:35.745Z,1007.03
2022-12-15T18:40:39.158Z,1007.03
2022-12-15T18:42:35.380Z,1006.99
2022-12-15T18:44:35.628Z,1006.99
2022-12-15T18:46:36.158Z,1007.07
2022-12-15T18:48:35.312Z,1007.07
2022-12-15T18:50:35.660Z,1007.09
2022-12-15T18:52:41.409Z,1007.09
2022-12-15T18:54:35.228Z,1007.08
2022-12-15T18:56:35.594Z,1007.08
2022-12-15T18:58:38.463Z,1007.18
2022-12-15T19:00:39.484Z,1007.18
2022-12-15T19:02:36.580Z,1007.16
2022-12-15T19:04:35.364Z,1007.16
2022-12-15T19:06:37.589Z,1007.18
2022-12-15T19:08:35.036Z,1007.18
2022-12-15T19:10:35.750Z,1007.18
2022-12-15T19:12:36.014Z,1007.18
2022-12-15T19:14:35.539Z,1007.13
2022-12-15T19:16:36.130Z,1007.13
2022-12-15T19:18:35.220Z,1007.24
2022-12-15T19:20:35.618Z,1007.24
2022-12-15T19:22:35.768Z,1007.34
2022-12-15T19:24:35.067Z,1007.34
2022-12-15T19:26:35.471Z,1007.25
2022-12-15T19:28:35.915Z,1007.25
2022-12-15T19:30:41.672Z,1007.31
2022-12-15T19:32:35.480Z,1007.31
2022-12-15T19:34:35.933Z,1007.2
2022-12-15T19:36:36.869Z,1007.2
2022-12-15T19:38:35.690Z,1007.32
2022-12-15T19:40:35.222Z,1007.32
2022-12-15T19:42:35.898Z,1007.36
2022-12-15T19:44:35.818Z,1007.36
2022-12-15T19:46:35.641Z,1007.46
2022-12-15T19:48:35.921Z,1007.46
2022-12-15T19:50:35.083Z,1007.46
2022-12-15T19:52:35.365Z,1007.46
2022-12-15T19:54:35.683Z,1007.37
2022-12-15T19:56:36.033Z,1007.37
2022-12-15T19:58:39.596Z,1007.34
2022-12-15T20:00:36.202Z,1007.34
2022-12-15T20:02:36.009Z,1007.59
2022-12-15T20:04:36.019Z,1007.59
2022-12-15T20:06:35.087Z,1007.61
2022-12-15T20:08:35.401Z,1007.61
2022-12-15T20:10:44.181Z,1007.45
2022-12-15T20:12:35.310Z,1007.45
2022-12-15T20:14:35.648Z,1007.6
2022-12-15T20:16:35.931Z,1007.68
2022-12-15T20:18:35.441Z,1007.68
2022-12-15T20:20:35.496Z,1007.69
2022-12-15T20:22:35.905Z,1007.69
2022-12-15T20:24:35.241Z,1007.7
2022-12-15T20:26:35.691Z,1007.7
2022-12-15T20:28:35.114Z,1007.56
2022-12-15T20:30:35.570Z,1007.56
2022-12-15T20:32:38.528Z,1007.7
2022-12-15T20:34:35.399Z,1007.7
2022-12-15T20:36:35.506Z,1007.81
2022-12-15T20:38:34.993Z,1007.81
2022-12-15T20:40:36.824Z,1007.84
2022-12-15T20:42:35.776Z,1007.84
2022-12-15T20:44:35.435Z,1007.73
2022-12-15T20:46:36.205Z,1007.73
2022-12-15T20:48:35.198Z,1007.87
2022-12-15T20:50:35.592Z,1007.87
2022-12-15T20:52:35.973Z,1007.91
2022-12-15T20:54:35.250Z,1007.91
2022-12-15T20:56:35.744Z,1008.07
2022-12-15T20:58:44.039Z,1008.07
2022-12-15T21:00:38.118Z,1007.79
2022-12-15T21:02:36.372Z,1007.79
2022-12-15T21:04:35.539Z,1007.85
2022-12-15T21:06:35.967Z,1007.85
2022-12-15T21:08:35.250Z,1007.92
2022-12-15T21:10:35.629Z,1007.92
2022-12-15T21:12:42.804Z,1007.97
2022-12-15T21:14:35.368Z,1007.97
2022-12-15T21:16:36.164Z,1007.96
2022-12-15T21:19:43.656Z,1007.96
2022-12-15T21:20:35.844Z,1008.1
2022-12-15T21:22:35.241Z,1008.1
2022-12-15T21:24:35.744Z,1008.19
2022-12-15T21:26:35.312Z,1008.19
2022-12-15T21:28:35.733Z,1008.16
2022-12-15T21:30:35.164Z,1008.16
2022-12-15T21:32:35.418Z,1008.24
2022-12-15T21:34:35.075Z,1008.24
2022-12-15T21:36:35.385Z,1008.3
2022-12-15T21:38:36.227Z,1008.3
2022-12-15T21:40:35.254Z,1008.33
2022-12-15T21:42:35.842Z,1008.33
2022-12-15T21:44:35.911Z,1008.46
2022-12-15T21:46:39.369Z,1008.46
2022-12-15T21:48:36.062Z,1008.45
2022-12-15T21:50:35.325Z,1008.45
2022-12-15T21:52:35.776Z,1008.42
2022-12-15T21:54:42.364Z,1008.42
2022-12-15T21:56:35.553Z,1008.47
2022-12-15T21:58:36.122Z,1008.47
2022-12-15T22:00:45.569Z,1008.64
2022-12-15T22:02:36.236Z,1008.64
2022-12-15T22:04:35.914Z,1008.62
2022-12-15T22:06:35.237Z,1008.62
2022-12-15T22:08:35.896Z,1008.57
2022-12-15T22:10:35.509Z,1008.57
2022-12-15T22:12:35.978Z,1008.64
2022-12-15T22:14:35.295Z,1008.64
2022-12-15T22:16:36.317Z,1008.69
2022-12-15T22:18:36.311Z,1008.69
2022-12-15T22:20:35.546Z,1008.64
2022-12-15T22:22:43.132Z,1008.64
2022-12-15T22:24:35.410Z,1008.67
2022-12-15T22:26:35.834Z,1008.67
2022-12-15T22:28:35.430Z,1008.69
2022-12-15T22:30:35.653Z,1008.69
2022-12-15T22:32:35.897Z,1008.77
2022-12-15T22:34:35.360Z,1008.77
2022-12-15T22:36:36.173Z,1008.76
2022-12-15T22:38:35.765Z,1008.76
2022-12-15T22:40:35.705Z,1008.84
2022-12-15T22:42:35.149Z,1008.84
2022-12-15T22:44:35.416Z,1008.75
2022-12-15T22:46:36.148Z,1008.75
2022-12-15T22:48:35.656Z,1008.65
2022-12-15T22:50:35.713Z,1008.65
2022-12-15T22:52:35.029Z,1008.75
2022-12-15T22:54:35.546Z,1008.75
2022-12-15T22:56:35.734Z,1008.82
2022-12-15T22:58:35.377Z,1008.82
2022-12-15T23:00:44.088Z,1008.85
2022-12-15T23:02:36.208Z,1008.85
2022-12-15T23:04:35.256Z,1008.7
2022-12-15T23:06:35.566Z,1008.7
2022-12-15T23:08:35.844Z,1008.81
2022-12-15T23:10:35.435Z,1008.81
2022-12-15T23:12:35.887Z,1008.73
2022-12-15T23:14:35.027Z,1008.73
2022-12-15T23:16:35.815Z,1008.82
2022-12-15T23:18:35.846Z,1008.82
2022-12-15T23:20:35.233Z,1008.85
2022-12-15T23:22:35.453Z,1008.85
2022-12-15T23:24:35.887Z,1008.84
2022-12-15T23:26:35.235Z,1008.84
2022-12-15T23:28:35.583Z,1008.96
2022-12-15T23:30:35.928Z,1008.96
2022-12-15T23:32:35.345Z,1008.9
2022-12-15T23:34:35.718Z,1008.9
2022-12-15T23:36:36.042Z,1008.9
2022-12-15T23:38:35.384Z,1009
2022-12-15T23:40:36.081Z,1009
2022-12-15T23:42:35.288Z,1009.12
2022-12-15T23:44:35.666Z,1009.12
2022-12-15T23:46:35.632Z,1009.15
2022-12-15T23:48:35.566Z,1009.15
2022-12-15T23:50:36.079Z,1009.23
2022-12-15T23:52:35.252Z,1009.23
2022-12-15T23:54:35.732Z,1009.28
2022-12-15T23:56:35.977Z,1009.28
2022-12-15T23:58:35.161Z,1009.44
